Back to Top

Language: 

My Weather Underground Personal Weather Station Historical Data with Graphs...

Delerius Weather Station Historical Data
Daily Summary for November 22, 2017 Units:  Metric    English   Both
« Previous Day
Next Day »
Daily Weekly Monthly Yearly Custom
  High: Low: Average:
Temperature: 15.5 °C 13 °C 13.9 °C
Dew Point: 12.7 °C 10.7 °C 11.4 °C
Humidity: 95 % 78 % 85 %
Wind Speed: 45.1 km/h 6.4 km/h 24.8 km/h
Wind Gust: 75.6 km/h - -
Wind:- - SSW
Pressure: 997.2 hPa 977.9 hPa -
Precipitation: 1.52 mm    
Historical Graphs
 
 
Tabular Data for November 22, 2017
Time Temperature Dew Point Pressure Wind Wind Speed Wind Gust Humidity Rainfall Rate (Hourly) solar Conditions
00:03 14.3 °C 12.2 °C 997.2 hPa WSW 24.1 km/h 35.4 km/h 87 % 0 mm 0 W/m2
00:09 14.3 °C 12.2 °C 997.2 hPa WSW 24.1 km/h 37 km/h 87 % 0 mm 0 W/m2
00:14 14.2 °C 12.1 °C 997.2 hPa WSW 17.7 km/h 24.1 km/h 87 % 0 mm 0 W/m2
00:19 14.2 °C 12.1 °C 997.2 hPa WSW 22.5 km/h 33.8 km/h 87 % 0 mm 0 W/m2
00:24 14.2 °C 12.1 °C 996.8 hPa WSW 20.9 km/h 33.8 km/h 87 % 0 mm 0 W/m2
00:29 14.1 °C 11.9 °C 996.8 hPa WSW 17.7 km/h 32.2 km/h 87 % 0 mm 0 W/m2
00:34 14.1 °C 12.2 °C 996.8 hPa WSW 19.3 km/h 25.7 km/h 88 % 0 mm 0 W/m2
00:39 14 °C 12.1 °C 996.5 hPa WSW 17.7 km/h 33.8 km/h 88 % 0 mm 0 W/m2
00:44 14 °C 12.1 °C 996.5 hPa WSW 20.9 km/h 33.8 km/h 88 % 0 mm 0 W/m2
00:49 14 °C 12.1 °C 996.5 hPa WSW 17.7 km/h 33.8 km/h 88 % 0 mm 0 W/m2
00:54 14 °C 12.1 °C 996.5 hPa WSW 19.3 km/h 35.4 km/h 88 % 0 mm 0 W/m2
01:04 14.1 °C 11.9 °C 996.5 hPa WSW 20.9 km/h 30.6 km/h 87 % 0 mm 0 W/m2
01:09 14.1 °C 11.9 °C 996.2 hPa WSW 14.5 km/h 22.5 km/h 87 % 0 mm 0 W/m2
01:14 14.1 °C 11.9 °C 996.2 hPa WSW 17.7 km/h 32.2 km/h 87 % 0 mm 0 W/m2
01:19 14.1 °C 11.8 °C 996.2 hPa WSW 16.1 km/h 30.6 km/h 86 % 0 mm 0 W/m2
01:24 14.1 °C 11.8 °C 996.2 hPa WSW 16.1 km/h 25.7 km/h 86 % 0 mm 0 W/m2
01:29 14.1 °C 11.8 °C 996.2 hPa SW 19.3 km/h 25.7 km/h 86 % 0 mm 0 W/m2
01:34 14.1 °C 11.8 °C 996.5 hPa SW 14.5 km/h 22.5 km/h 86 % 0 mm 0 W/m2
01:39 14.1 °C 11.9 °C 996.5 hPa SW 16.1 km/h 24.1 km/h 87 % 0 mm 0 W/m2
01:44 14.1 °C 11.9 °C 996.2 hPa SW 12.9 km/h 20.9 km/h 87 % 0 mm 0 W/m2
01:50 14.1 °C 11.9 °C 996.2 hPa SW 19.3 km/h 24.1 km/h 87 % 0 mm 0 W/m2
01:55 14.1 °C 11.9 °C 996.2 hPa WSW 16.1 km/h 22.5 km/h 87 % 0 mm 0 W/m2
02:00 14.1 °C 11.9 °C 996.2 hPa SW 19.3 km/h 25.7 km/h 87 % 0 mm 0 W/m2
02:10 14.1 °C 11.8 °C 995.8 hPa SW 19.3 km/h 29 km/h 86 % 0 mm 0 W/m2
02:15 14 °C 11.7 °C 995.8 hPa SW 17.7 km/h 32.2 km/h 86 % 0 mm 0 W/m2
02:25 13.8 °C 11.7 °C 995.8 hPa SW 17.7 km/h 24.1 km/h 87 % 0 mm 0 W/m2
02:30 13.8 °C 11.7 °C 995.8 hPa SW 19.3 km/h 29 km/h 87 % 0 mm 0 W/m2
02:35 13.8 °C 11.7 °C 995.5 hPa SW 17.7 km/h 25.7 km/h 87 % 0 mm 0 W/m2
02:40 13.8 °C 11.7 °C 995.8 hPa SW 17.7 km/h 30.6 km/h 87 % 0 mm 0 W/m2
02:45 13.8 °C 11.7 °C 995.5 hPa SW 19.3 km/h 25.7 km/h 87 % 0 mm 0 W/m2
02:55 13.7 °C 11.6 °C 995.1 hPa SW 17.7 km/h 22.5 km/h 87 % 0 mm 0 W/m2
03:00 13.7 °C 11.6 °C 995.1 hPa SW 14.5 km/h 24.1 km/h 87 % 0 mm 0 W/m2
03:10 13.6 °C 11.7 °C 994.8 hPa SW 16.1 km/h 25.7 km/h 88 % 0 mm 0 W/m2
03:15 13.6 °C 11.7 °C 995.1 hPa SW 19.3 km/h 30.6 km/h 88 % 0 mm 0 W/m2
03:23 13.5 °C 11.7 °C 995.1 hPa SW 19.3 km/h 32.2 km/h 89 % 0 mm 0 W/m2
03:30 13.5 °C 11.7 °C 994.8 hPa SW 16.1 km/h 25.7 km/h 89 % 0 mm 0 W/m2
03:38 13.5 °C 11.7 °C 994.8 hPa SW 19.3 km/h 25.7 km/h 89 % 0 mm 0 W/m2
03:43 13.4 °C 11.8 °C 994.8 hPa SW 12.9 km/h 17.7 km/h 90 % 0 mm 0 W/m2
03:53 13.3 °C 11.9 °C 994.8 hPa SSW 6.4 km/h 11.3 km/h 91 % 0.25 mm 0 W/m2
03:58 13.2 °C 11.8 °C 994.5 hPa SSW 6.4 km/h 11.3 km/h 91 % 0.25 mm 0 W/m2
04:03 13.2 °C 11.9 °C 994.5 hPa SSW 8 km/h 12.9 km/h 92 % 0.51 mm 0 W/m2
04:08 13.1 °C 11.8 °C 994.5 hPa SSW 11.3 km/h 16.1 km/h 92 % 0.51 mm 0 W/m2
04:18 13.1 °C 12 °C 994.1 hPa SSW 9.7 km/h 16.1 km/h 93 % 0.51 mm 0 W/m2
04:28 13.1 °C 12.2 °C 994.1 hPa SSW 9.7 km/h 19.3 km/h 94 % 0.51 mm 0 W/m2
04:38 13.1 °C 12.2 °C 994.1 hPa SSW 16.1 km/h 25.7 km/h 94 % 0.76 mm 0 W/m2
04:43 13.1 °C 12.2 °C 994.1 hPa SW 12.9 km/h 22.5 km/h 94 % 0.76 mm 0 W/m2
04:48 13.2 °C 12.4 °C 994.1 hPa SW 14.5 km/h 20.9 km/h 95 % 0.76 mm 0 W/m2
04:58 13.3 °C 12.5 °C 993.8 hPa SW 16.1 km/h 25.7 km/h 95 % 0.51 mm 0 W/m2
05:03 13.4 °C 12.4 °C 993.8 hPa SW 17.7 km/h 32.2 km/h 94 % 0.51 mm 0 W/m2
05:08 13.5 °C 12.6 °C 994.1 hPa SW 16.1 km/h 29 km/h 94 % 0.51 mm 0 W/m2
05:13 13.6 °C 12.7 °C 993.8 hPa SW 16.1 km/h 25.7 km/h 94 % 0.51 mm 0 W/m2
05:18 13.6 °C 12.5 °C 993.8 hPa SW 19.3 km/h 30.6 km/h 93 % 0.25 mm 0 W/m2
05:23 13.6 °C 12.5 °C 993.8 hPa SW 19.3 km/h 35.4 km/h 93 % 0.25 mm 0 W/m2
05:38 13.8 °C 12.3 °C 993.5 hPa SW 17.7 km/h 29 km/h 91 % 0 mm 0 W/m2
05:43 13.9 °C 12.1 °C 993.5 hPa SW 24.1 km/h 37 km/h 89 % 0 mm 0 W/m2
05:48 14 °C 12.1 °C 993.5 hPa SSW 20.9 km/h 38.6 km/h 88 % 0 mm 0 W/m2
05:53 14 °C 12.1 °C 993.5 hPa SSW 19.3 km/h 29 km/h 88 % 0 mm 0 W/m2
06:03 13.9 °C 11.6 °C 993.5 hPa SW 20.9 km/h 33.8 km/h 86 % 0 mm 0 W/m2
06:18 13.8 °C 11.3 °C 993.1 hPa SW 19.3 km/h 33.8 km/h 85 % 0 mm 0 W/m2
06:23 13.7 °C 11.2 °C 993.1 hPa SW 19.3 km/h 30.6 km/h 85 % 0 mm 0 W/m2
06:28 13.7 °C 11.2 °C 993.1 hPa SW 16.1 km/h 22.5 km/h 85 % 0 mm 0 W/m2
06:33 13.6 °C 11.1 °C 992.8 hPa SSW 17.7 km/h 25.7 km/h 85 % 0 mm 0 W/m2
06:43 13.6 °C 10.9 °C 992.8 hPa SW 22.5 km/h 30.6 km/h 84 % 0 mm 0 W/m2
06:48 13.6 °C 10.9 °C 992.8 hPa SW 17.7 km/h 32.2 km/h 84 % 0 mm 0 W/m2
06:53 13.6 °C 10.9 °C 992.8 hPa SSW 17.7 km/h 29 km/h 84 % 0 mm 0 W/m2
07:03 13.6 °C 10.9 °C 992.8 hPa SW 16.1 km/h 22.5 km/h 84 % 0 mm 0 W/m2
07:08 13.6 °C 10.9 °C 992.8 hPa SW 17.7 km/h 25.7 km/h 84 % 0 mm 0 W/m2
07:18 13.6 °C 10.9 °C 992.4 hPa SW 20.9 km/h 33.8 km/h 84 % 0 mm 0 W/m2
07:23 13.6 °C 10.9 °C 992.4 hPa SW 14.5 km/h 20.9 km/h 84 % 0 mm 0 W/m2
07:28 13.6 °C 10.9 °C 992.1 hPa SSW 17.7 km/h 24.1 km/h 84 % 0 mm 0 W/m2
07:33 13.6 °C 10.9 °C 992.1 hPa SSW 19.3 km/h 30.6 km/h 84 % 0 mm 0 W/m2
07:38 13.6 °C 10.9 °C 992.1 hPa SW 14.5 km/h 22.5 km/h 84 % 0 mm 0 W/m2
07:48 13.6 °C 10.9 °C 992.1 hPa SSW 16.1 km/h 24.1 km/h 84 % 0 mm 0 W/m2
08:08 13.6 °C 10.9 °C 991.8 hPa SSW 19.3 km/h 29 km/h 84 % 0 mm 5 W/m2
08:18 13.6 °C 10.9 °C 991.8 hPa SW 19.3 km/h 33.8 km/h 84 % 0 mm 11 W/m2
08:23 13.5 °C 10.8 °C 991.8 hPa SSW 20.9 km/h 35.4 km/h 84 % 0 mm 7 W/m2
08:28 13.5 °C 10.8 °C 991.4 hPa SSW 19.3 km/h 33.8 km/h 84 % 0 mm 5 W/m2
08:34 13.4 °C 10.8 °C 991.4 hPa SSW 20.9 km/h 30.6 km/h 84 % 0 mm 11 W/m2
08:39 13.4 °C 10.8 °C 991.4 hPa SSW 16.1 km/h 24.1 km/h 84 % 0 mm 7 W/m2
08:44 13.4 °C 10.9 °C 991.4 hPa SSW 25.7 km/h 40.2 km/h 85 % 0 mm 9 W/m2
08:49 13.4 °C 10.9 °C 991.4 hPa SSW 24.1 km/h 41.8 km/h 85 % 0 mm 7 W/m2
08:54 13.4 °C 10.9 °C 991.4 hPa SSW 17.7 km/h 25.7 km/h 85 % 0 mm 12 W/m2
08:59 13.4 °C 10.9 °C 991.4 hPa SSW 16.1 km/h 25.7 km/h 85 % 0 mm 9 W/m2
09:04 13.4 °C 10.9 °C 991.1 hPa SSW 22.5 km/h 38.6 km/h 85 % 0 mm 7 W/m2
09:19 13.4 °C 10.9 °C 991.4 hPa SSW 17.7 km/h 30.6 km/h 85 % 0 mm 7 W/m2
09:29 13.3 °C 11 °C 991.1 hPa SSW 19.3 km/h 30.6 km/h 86 % 0 mm 11 W/m2
09:34 13.4 °C 11.1 °C 991.1 hPa SSW 20.9 km/h 33.8 km/h 86 % 0 mm 11 W/m2
09:44 13.4 °C 10.9 °C 991.1 hPa SSW 16.1 km/h 30.6 km/h 85 % 0 mm 16 W/m2
09:49 13.5 °C 11 °C 991.1 hPa SSW 22.5 km/h 35.4 km/h 85 % 0 mm 19 W/m2
10:29 13.9 °C 11.2 °C 990.7 hPa SSW 20.9 km/h 33.8 km/h 84 % 0 mm 11 W/m2
10:39 14 °C 11.2 °C 990.7 hPa SSW 25.7 km/h 46.7 km/h 83 % 0 mm 11 W/m2
10:49 14.1 °C 11.3 °C 990.7 hPa SSW 29 km/h 41.8 km/h 83 % 0 mm 21 W/m2
10:54 14.1 °C 11.3 °C 990.4 hPa SSW 25.7 km/h 45.1 km/h 83 % 0 mm 32 W/m2
11:04 14.2 °C 11.2 °C 990.1 hPa SSW 27.4 km/h 43.5 km/h 82 % 0 mm 51 W/m2
11:09 14.3 °C 11.1 °C 990.1 hPa SSW 20.9 km/h 35.4 km/h 81 % 0 mm 39 W/m2
11:14 14.3 °C 11.1 °C 990.1 hPa SW 19.3 km/h 37 km/h 81 % 0 mm 33 W/m2
11:19 14.3 °C 11.1 °C 989.7 hPa SSW 24.1 km/h 41.8 km/h 81 % 0 mm 23 W/m2
11:24 14.3 °C 11.1 °C 989.7 hPa SSW 19.3 km/h 40.2 km/h 81 % 0 mm 21 W/m2
11:29 14.3 °C 11.1 °C 989.4 hPa SSW 25.7 km/h 49.9 km/h 81 % 0 mm 21 W/m2
11:34 14.3 °C 11.1 °C 989.4 hPa SSW 22.5 km/h 35.4 km/h 81 % 0 mm 16 W/m2
11:44 14.3 °C 11.1 °C 989.7 hPa SSW 14.5 km/h 29 km/h 81 % 0 mm 18 W/m2
11:49 14.3 °C 11.1 °C 989.4 hPa SSW 19.3 km/h 33.8 km/h 81 % 0 mm 14 W/m2
11:54 14.3 °C 11.1 °C 989.1 hPa SW 20.9 km/h 35.4 km/h 81 % 0 mm 67 W/m2
11:59 14.4 °C 11.2 °C 989.1 hPa SSW 14.5 km/h 20.9 km/h 81 % 0 mm 70 W/m2
12:04 14.4 °C 11.2 °C 988.7 hPa SSW 19.3 km/h 29 km/h 81 % 0 mm 95 W/m2
12:09 14.5 °C 11.3 °C 988.4 hPa South 17.7 km/h 30.6 km/h 81 % 0 mm 83 W/m2
12:14 14.6 °C 11.2 °C 988.4 hPa South 19.3 km/h 33.8 km/h 80 % 0 mm 77 W/m2
12:19 14.7 °C 11.3 °C 988 hPa SSW 25.7 km/h 45.1 km/h 80 % 0 mm 49 W/m2
12:24 14.7 °C 11.3 °C 988 hPa South 22.5 km/h 40.2 km/h 80 % 0 mm 46 W/m2
12:29 14.7 °C 11.3 °C 987.7 hPa South 17.7 km/h 32.2 km/h 80 % 0 mm 35 W/m2
12:34 14.7 °C 11.3 °C 987.7 hPa South 20.9 km/h 40.2 km/h 80 % 0 mm 21 W/m2
12:44 14.6 °C 11.4 °C 987.4 hPa South 25.7 km/h 40.2 km/h 81 % 0 mm 26 W/m2
12:59 14.6 °C 11.4 °C 987 hPa South 22.5 km/h 38.6 km/h 81 % 0 mm 54 W/m2
13:07 14.7 °C 11.4 °C 987 hPa SSW 16.1 km/h 29 km/h 81 % 0 mm 72 W/m2
13:12 14.7 °C 11.3 °C 986.7 hPa SSW 17.7 km/h 37 km/h 80 % 0 mm 67 W/m2
13:19 14.7 °C 11.3 °C 986.7 hPa South 20.9 km/h 32.2 km/h 80 % 0 mm 51 W/m2
13:24 14.7 °C 11.3 °C 986.7 hPa SSW 17.7 km/h 25.7 km/h 80 % 0 mm 33 W/m2
13:29 14.7 °C 11.3 °C 986.7 hPa South 17.7 km/h 30.6 km/h 80 % 0 mm 42 W/m2
13:39 14.9 °C 11.5 °C 986 hPa SSW 30.6 km/h 46.7 km/h 80 % 0 mm 98 W/m2
13:54 15.1 °C 11.5 °C 986 hPa SSW 24.1 km/h 38.6 km/h 79 % 0 mm 51 W/m2
13:59 15.1 °C 11.5 °C 986 hPa SSW 30.6 km/h 46.7 km/h 79 % 0 mm 40 W/m2
14:04 15.1 °C 11.5 °C 986 hPa SSW 29 km/h 41.8 km/h 79 % 0 mm 47 W/m2
14:14 15.1 °C 11.5 °C 985.3 hPa SSW 22.5 km/h 37 km/h 79 % 0 mm 46 W/m2
14:19 15.2 °C 11.6 °C 985.7 hPa SSW 25.7 km/h 46.7 km/h 79 % 0 mm 42 W/m2
14:24 15.2 °C 11.6 °C 985.7 hPa SSW 29 km/h 49.9 km/h 79 % 0 mm 40 W/m2
14:29 15.3 °C 11.7 °C 985.3 hPa SSW 35.4 km/h 56.3 km/h 79 % 0 mm 44 W/m2
14:34 15.4 °C 11.6 °C 985.3 hPa SSW 32.2 km/h 56.3 km/h 78 % 0 mm 32 W/m2
14:46 15.5 °C 11.7 °C 985 hPa SSW 29 km/h 49.9 km/h 78 % 0 mm 26 W/m2
14:51 15.5 °C 11.7 °C 985.3 hPa SSW 33.8 km/h 56.3 km/h 78 % 0 mm 21 W/m2
14:56 15.4 °C 11.6 °C 985 hPa SSW 38.6 km/h 53.1 km/h 78 % 0 mm 21 W/m2
15:01 15.4 °C 11.6 °C 985 hPa SSW 37 km/h 67.6 km/h 78 % 0 mm 11 W/m2
15:06 15.4 °C 11.6 °C 985 hPa SSW 33.8 km/h 53.1 km/h 78 % 0 mm 19 W/m2
15:11 15.4 °C 11.8 °C 985 hPa SSW 41.8 km/h 62.8 km/h 79 % 0 mm 14 W/m2
15:16 15.3 °C 11.7 °C 984.6 hPa SW 35.4 km/h 54.7 km/h 79 % 0 mm 26 W/m2
15:21 15.3 °C 11.7 °C 984.6 hPa SSW 37 km/h 64.4 km/h 79 % 0 mm 23 W/m2
15:26 15.3 °C 11.7 °C 984.3 hPa SSW 32.2 km/h 45.1 km/h 79 % 0 mm 16 W/m2
15:31 15.3 °C 11.7 °C 984.3 hPa SW 30.6 km/h 51.5 km/h 79 % 0 mm 5 W/m2
16:01 15 °C 11.6 °C 984 hPa SSW 32.2 km/h 54.7 km/h 80 % 0 mm 0 W/m2
16:06 15 °C 11.6 °C 984 hPa SSW 37 km/h 56.3 km/h 80 % 0 mm 0 W/m2
16:13 15 °C 11.8 °C 984 hPa SSW 30.6 km/h 53.1 km/h 81 % 0 mm 0 W/m2
16:23 15.1 °C 11.7 °C 983.6 hPa SSW 32.2 km/h 41.8 km/h 80 % 0 mm 0 W/m2
16:28 15.1 °C 11.7 °C 983.6 hPa SSW 37 km/h 66 km/h 80 % 0 mm 0 W/m2
16:29 15.1 °C 11.7 °C 983.6 hPa SSW 40.2 km/h 66 km/h 80 % 0 mm 0 W/m2
16:34 15.1 °C 11.7 °C 983.6 hPa SSW 32.2 km/h 53.1 km/h 80 % 0 mm 0 W/m2
16:39 15.1 °C 11.7 °C 983.6 hPa SSW 30.6 km/h 53.1 km/h 80 % 0 mm 0 W/m2
16:44 15.1 °C 11.7 °C 983.3 hPa SSW 38.6 km/h 67.6 km/h 80 % 0 mm 0 W/m2
16:49 15.2 °C 11.8 °C 983.6 hPa SSW 30.6 km/h 54.7 km/h 80 % 0 mm 0 W/m2
16:54 15.2 °C 11.8 °C 983.6 hPa SSW 35.4 km/h 61.2 km/h 80 % 0 mm 0 W/m2
16:59 15.2 °C 11.6 °C 983.6 hPa SSW 40.2 km/h 69.2 km/h 79 % 0 mm 0 W/m2
17:04 15.2 °C 11.8 °C 983.3 hPa SSW 33.8 km/h 48.3 km/h 80 % 0 mm 0 W/m2
17:09 14.9 °C 11.8 °C 983.3 hPa SSW 33.8 km/h 49.9 km/h 82 % 0 mm 0 W/m2
17:19 14.4 °C 12.1 °C 983 hPa SSW 27.4 km/h 41.8 km/h 86 % 0 mm 0 W/m2
17:34 13.9 °C 11.9 °C 982.6 hPa SSW 33.8 km/h 61.2 km/h 88 % 0.25 mm 0 W/m2
17:39 13.8 °C 12 °C 982.6 hPa SSW 32.2 km/h 62.8 km/h 89 % 0.25 mm 0 W/m2
17:44 13.8 °C 12 °C 982.3 hPa SSW 24.1 km/h 40.2 km/h 89 % 0.25 mm 0 W/m2
17:54 13.7 °C 12.1 °C 982.3 hPa SSW 30.6 km/h 46.7 km/h 90 % 0.51 mm 0 W/m2
17:59 13.7 °C 12.1 °C 982.3 hPa SSW 32.2 km/h 51.5 km/h 90 % 0.51 mm 0 W/m2
18:04 13.7 °C 12.1 °C 982.3 hPa SSW 37 km/h 64.4 km/h 90 % 0.51 mm 0 W/m2
18:19 13.6 °C 11.8 °C 981.9 hPa SSW 25.7 km/h 41.8 km/h 89 % 0.51 mm 0 W/m2
18:29 13.8 °C 11.7 °C 981.9 hPa SSW 35.4 km/h 69.2 km/h 87 % 0.25 mm 0 W/m2
18:39 13.8 °C 11.5 °C 981.9 hPa SSW 38.6 km/h 56.3 km/h 86 % 0.25 mm 0 W/m2
18:44 13.7 °C 11.4 °C 981.9 hPa SSW 33.8 km/h 54.7 km/h 86 % 0.25 mm 0 W/m2
18:49 13.5 °C 11.4 °C 981.6 hPa SSW 32.2 km/h 53.1 km/h 87 % 0.25 mm 0 W/m2
18:54 13.3 °C 11.2 °C 981.6 hPa SSW 30.6 km/h 46.7 km/h 87 % 0 mm 0 W/m2
19:04 13 °C 11.2 °C 981.6 hPa SSW 32.2 km/h 61.2 km/h 89 % 0.25 mm 0 W/m2
19:09 13.1 °C 11.2 °C 981.3 hPa SW 35.4 km/h 51.5 km/h 88 % 0.25 mm 0 W/m2
19:14 13.1 °C 11 °C 980.9 hPa SSW 32.2 km/h 51.5 km/h 87 % 0.25 mm 0 W/m2
19:19 13.2 °C 11.1 °C 980.9 hPa SSW 33.8 km/h 66 km/h 87 % 0.25 mm 0 W/m2
19:24 13.2 °C 10.9 °C 980.9 hPa SSW 37 km/h 54.7 km/h 86 % 0.25 mm 0 W/m2
19:29 13.3 °C 11 °C 980.9 hPa SSW 29 km/h 53.1 km/h 86 % 0.25 mm 0 W/m2
19:34 13.3 °C 10.8 °C 980.9 hPa SSW 32.2 km/h 54.7 km/h 85 % 0.25 mm 0 W/m2
19:44 13.3 °C 10.8 °C 980.6 hPa SSW 37 km/h 51.5 km/h 85 % 0.25 mm 0 W/m2
19:49 13.4 °C 10.9 °C 980.6 hPa SSW 27.4 km/h 43.5 km/h 85 % 0.25 mm 0 W/m2
19:54 13.4 °C 10.9 °C 980.6 hPa SSW 32.2 km/h 48.3 km/h 85 % 0 mm 0 W/m2
20:29 13.7 °C 10.9 °C 980.6 hPa SSW 37 km/h 53.1 km/h 83 % 0 mm 0 W/m2
20:34 13.7 °C 11.1 °C 980.2 hPa SSW 30.6 km/h 45.1 km/h 84 % 0 mm 0 W/m2
20:39 13.6 °C 11.1 °C 980.6 hPa SSW 29 km/h 45.1 km/h 85 % 0 mm 0 W/m2
20:44 13.6 °C 11.1 °C 980.2 hPa SW 32.2 km/h 64.4 km/h 85 % 0 mm 0 W/m2
20:49 13.5 °C 11 °C 980.2 hPa SW 25.7 km/h 43.5 km/h 85 % 0 mm 0 W/m2
20:54 13.5 °C 11 °C 980.2 hPa SSW 24.1 km/h 37 km/h 85 % 0 mm 0 W/m2
20:55 13.5 °C 11 °C 980.2 hPa SSW 24.1 km/h 37 km/h 85 % 0 mm 0 W/m2
21:00 13.4 °C 11.1 °C 979.9 hPa SSW 30.6 km/h 43.5 km/h 86 % 0 mm 0 W/m2
21:11 13.3 °C 11.2 °C 980.2 hPa SSW 27.4 km/h 41.8 km/h 87 % 0 mm 0 W/m2
21:16 13.3 °C 11.2 °C 980.2 hPa SSW 25.7 km/h 38.6 km/h 87 % 0 mm 0 W/m2
21:26 13.3 °C 11.2 °C 979.9 hPa SSW 27.4 km/h 54.7 km/h 87 % 0 mm 0 W/m2
21:27 13.3 °C 11.2 °C 979.9 hPa SW 30.6 km/h 54.7 km/h 87 % 0 mm 0 W/m2
21:32 13.2 °C 11.3 °C 979.9 hPa SSW 27.4 km/h 40.2 km/h 88 % 0 mm 0 W/m2
21:37 13.2 °C 11.3 °C 979.6 hPa SSW 30.6 km/h 48.3 km/h 88 % 0 mm 0 W/m2
21:42 13.2 °C 11.4 °C 979.6 hPa SSW 33.8 km/h 54.7 km/h 89 % 0 mm 0 W/m2
21:47 13 °C 11.2 °C 979.6 hPa SSW 27.4 km/h 38.6 km/h 89 % 0 mm 0 W/m2
21:52 13.1 °C 11.3 °C 979.2 hPa SSW 29 km/h 43.5 km/h 89 % 0 mm 0 W/m2
21:57 13.2 °C 11.3 °C 979.2 hPa SSW 32.2 km/h 51.5 km/h 88 % 0 mm 0 W/m2
22:02 13.3 °C 11.2 °C 979.2 hPa SSW 30.6 km/h 48.3 km/h 87 % 0 mm 0 W/m2
22:07 13.3 °C 11.3 °C 979.2 hPa SSW 25.7 km/h 48.3 km/h 88 % 0 mm 0 W/m2
22:12 13.3 °C 11.2 °C 978.9 hPa SW 30.6 km/h 57.9 km/h 87 % 0 mm 0 W/m2
22:17 13.3 °C 11 °C 978.9 hPa SSW 32.2 km/h 53.1 km/h 86 % 0 mm 0 W/m2
22:32 13.4 °C 11.1 °C 978.6 hPa SSW 27.4 km/h 40.2 km/h 86 % 0 mm 0 W/m2
22:43 13.3 °C 11 °C 978.6 hPa SSW 32.2 km/h 51.5 km/h 86 % 0 mm 0 W/m2
22:53 13.3 °C 11 °C 978.6 hPa SSW 33.8 km/h 49.9 km/h 86 % 0 mm 0 W/m2
22:58 13.3 °C 11 °C 978.6 hPa SSW 32.2 km/h 51.5 km/h 86 % 0 mm 0 W/m2
23:08 13.4 °C 10.9 °C 978.2 hPa SSW 40.2 km/h 59.5 km/h 85 % 0 mm 0 W/m2
23:13 13.4 °C 10.8 °C 978.2 hPa SW 35.4 km/h 49.9 km/h 84 % 0 mm 0 W/m2
23:18 13.6 °C 10.8 °C 978.2 hPa SW 35.4 km/h 53.1 km/h 83 % 0 mm 0 W/m2
23:23 13.6 °C 10.8 °C 978.2 hPa SW 40.2 km/h 59.5 km/h 83 % 0 mm 0 W/m2
23:25 13.6 °C 10.8 °C 978.2 hPa SSW 37 km/h 51.5 km/h 83 % 0 mm 0 W/m2
23:30 13.6 °C 10.8 °C 978.2 hPa SW 43.5 km/h 67.6 km/h 83 % 0 mm 0 W/m2
23:35 13.4 °C 10.8 °C 977.9 hPa SSW 37 km/h 75.6 km/h 84 % 0 mm 0 W/m2
23:40 13.2 °C 10.9 °C 978.2 hPa SSW 38.6 km/h 59.5 km/h 86 % 0.25 mm 0 W/m2
23:45 13.1 °C 10.8 °C 978.2 hPa SSW 33.8 km/h 54.7 km/h 86 % 0.25 mm 0 W/m2
23:50 13.2 °C 10.7 °C 978.2 hPa SSW 45.1 km/h 67.6 km/h 85 % 0.25 mm 0 W/m2
23:55 13.2 °C 10.7 °C 978.2 hPa SSW 35.4 km/h 57.9 km/h 85 % 0.25 mm 0 W/m2
Delerius-Weather
Compliments of Weather Underground - 1.75 mb

Data updates at regular intervals.